KRMG/RMG METAR and TAF weather

Enter ICAO airport designator
Station Type Date Time Source
KRMG METAR 2020/01/20 21:53 UTC NOAA

KRMG 202153Z AUTO 36010KT 10SM CLR 02/M09 A3039 RMK AO2 SLP293 T00171089 $


Station Type Date Time Source
KRMG Decoded METAR 2020/01/20 21:53 UTC NOAA

ROME R. B. RUSSELL AIRPORT, GA, United States (KRMG) 34-21N 085-10W 193M
Jan 20, 2020 - 04:53 PM EST / 2020.01.20 2153 UTC
Wind: from the N (360 degrees) at 12 MPH (10 KT):0
Visibility: 10 mile(s):0
Sky conditions: clear
Temperature: 35.1 F (1.7 C)
Dew Point: 16.0 F (-8.9 C)
Relative Humidity: 45%
Pressure (altimeter): 30.39 in. Hg (1029 hPa)
ob: KRMG 202153Z AUTO 36010KT 10SM CLR 02/M09 A3039 RMK AO2 SLP293 T00171089
cycle: 22

Station Type Date Time Source
KRMG TAF UTC NOAA

Error!

Example: see airport list